sensor_id;sensor_type;location;lat;lon;timestamp;temperature;humidity
17053;DHT22;8643;48.824;11.422;2023-04-07T00:00:07;2.10;99.90
17053;DHT22;8643;48.824;11.422;2023-04-07T00:02:39;2.10;99.90
17053;DHT22;8643;48.824;11.422;2023-04-07T00:05:11;2.70;99.90
17053;DHT22;8643;48.824;11.422;2023-04-07T00:07:40;2.30;99.90
17053;DHT22;8643;48.824;11.422;2023-04-07T00:10:21;2.30;99.90
17053;DHT22;8643;48.824;11.422;2023-04-07T00:12:50;2.30;99.90
17053;DHT22;8643;48.824;11.422;2023-04-07T00:15:19;2.30;99.90
17053;DHT22;8643;48.824;11.422;2023-04-07T00:17:47;1.10;99.90
17053;DHT22;8643;48.824;11.422;2023-04-07T00:20:17;2.70;99.90
17053;DHT22;8643;48.824;11.422;2023-04-07T00:22:46;2.60;99.90
17053;DHT22;8643;48.824;11.422;2023-04-07T00:27:43;2.20;99.90
17053;DHT22;8643;48.824;11.422;2023-04-07T00:32:42;2.10;99.90
17053;DHT22;8643;48.824;11.422;2023-04-07T00:37:41;2.10;99.90
17053;DHT22;8643;48.824;11.422;2023-04-07T00:40:10;2.00;99.90
17053;DHT22;8643;48.824;11.422;2023-04-07T00:42:39;5.40;99.90
17053;DHT22;8643;48.824;11.422;2023-04-07T00:45:09;1.90;99.90
17053;DHT22;8643;48.824;11.422;2023-04-07T00:47:38;1.90;99.90
17053;DHT22;8643;48.824;11.422;2023-04-07T00:50:08;1.90;99.90
17053;DHT22;8643;48.824;11.422;2023-04-07T00:52:37;1.70;99.90
17053;DHT22;8643;48.824;11.422;2023-04-07T00:55:08;1.60;99.90
17053;DHT22;8643;48.824;11.422;2023-04-07T01:00:06;1.50;99.90
17053;DHT22;8643;48.824;11.422;2023-04-07T01:02:41;1.40;99.90
17053;DHT22;8643;48.824;11.422;2023-04-07T01:05:15;1.60;99.90
17053;DHT22;8643;48.824;11.422;2023-04-07T01:07:57;-0.70;99.90
17053;DHT22;8643;48.824;11.422;2023-04-07T01:10:41;1.30;99.90
17053;DHT22;8643;48.824;11.422;2023-04-07T01:13:22;1.20;99.90
17053;DHT22;8643;48.824;11.422;2023-04-07T01:16:10;1.20;99.90
17053;DHT22;8643;48.824;11.422;2023-04-07T01:18:47;1.10;99.90
17053;DHT22;8643;48.824;11.422;2023-04-07T01:21:22;1.10;99.90
17053;DHT22;8643;48.824;11.422;2023-04-07T01:24:08;1.10;99.90
17053;DHT22;8643;48.824;11.422;2023-04-07T01:26:56;1.20;99.90
17053;DHT22;8643;48.824;11.422;2023-04-07T01:29:36;1.10;99.90
17053;DHT22;8643;48.824;11.422;2023-04-07T01:32:13;1.20;99.90
17053;DHT22;8643;48.824;11.422;2023-04-07T01:34:48;1.30;99.90
17053;DHT22;8643;48.824;11.422;2023-04-07T01:37:19;1.30;99.90
17053;DHT22;8643;48.824;11.422;2023-04-07T01:39:49;4.80;99.90
17053;DHT22;8643;48.824;11.422;2023-04-07T01:42:18;1.40;99.90
17053;DHT22;8643;48.824;11.422;2023-04-07T01:44:51;1.40;99.90
17053;DHT22;8643;48.824;11.422;2023-04-07T01:47:20;1.40;99.90
17053;DHT22;8643;48.824;11.422;2023-04-07T01:49:51;1.30;99.90
17053;DHT22;8643;48.824;11.422;2023-04-07T01:52:21;1.20;99.90
17053;DHT22;8643;48.824;11.422;2023-04-07T01:57:20;1.10;99.90
17053;DHT22;8643;48.824;11.422;2023-04-07T01:59:54;1.10;99.90
17053;DHT22;8643;48.824;11.422;2023-04-07T02:04:55;1.10;99.90
17053;DHT22;8643;48.824;11.422;2023-04-07T02:07:30;1.10;99.90
17053;DHT22;8643;48.824;11.422;2023-04-07T02:10:10;1.10;99.90
17053;DHT22;8643;48.824;11.422;2023-04-07T02:12:41;0.90;99.90
17053;DHT22;8643;48.824;11.422;2023-04-07T02:15:18;1.00;99.90
17053;DHT22;8643;48.824;11.422;2023-04-07T02:17:50;1.00;99.90
17053;DHT22;8643;48.824;11.422;2023-04-07T02:20:21;0.90;99.90
17053;DHT22;8643;48.824;11.422;2023-04-07T02:22:50;1.60;99.90
17053;DHT22;8643;48.824;11.422;2023-04-07T02:25:20;1.00;99.90
17053;DHT22;8643;48.824;11.422;2023-04-07T02:27:51;1.00;99.90
17053;DHT22;8643;48.824;11.422;2023-04-07T02:30:22;1.00;99.90
17053;DHT22;8643;48.824;11.422;2023-04-07T02:32:51;1.00;99.90
17053;DHT22;8643;48.824;11.422;2023-04-07T02:35:20;1.00;99.90
17053;DHT22;8643;48.824;11.422;2023-04-07T02:37:48;1.00;99.90
17053;DHT22;8643;48.824;11.422;2023-04-07T02:40:17;1.00;99.90
17053;DHT22;8643;48.824;11.422;2023-04-07T02:42:45;1.10;99.90
17053;DHT22;8643;48.824;11.422;2023-04-07T02:47:46;1.20;99.90
17053;DHT22;8643;48.824;11.422;2023-04-07T02:50:17;1.60;99.90
17053;DHT22;8643;48.824;11.422;2023-04-07T02:52:45;1.10;99.90
17053;DHT22;8643;48.824;11.422;2023-04-07T02:55:14;1.10;99.90
17053;DHT22;8643;48.824;11.422;2023-04-07T02:57:44;1.00;99.90
17053;DHT22;8643;48.824;11.422;2023-04-07T03:00:30;1.00;99.90
17053;DHT22;8643;48.824;11.422;2023-04-07T03:03:08;1.00;99.90
17053;DHT22;8643;48.824;11.422;2023-04-07T03:05:40;1.00;99.90
17053;DHT22;8643;48.824;11.422;2023-04-07T03:08:10;1.10;99.90
17053;DHT22;8643;48.824;11.422;2023-04-07T03:10:39;1.00;99.90
17053;DHT22;8643;48.824;11.422;2023-04-07T03:13:08;1.00;99.90
17053;DHT22;8643;48.824;11.422;2023-04-07T03:15:39;1.00;99.90
17053;DHT22;8643;48.824;11.422;2023-04-07T03:18:09;1.00;99.90
17053;DHT22;8643;48.824;11.422;2023-04-07T03:20:40;1.10;99.90
17053;DHT22;8643;48.824;11.422;2023-04-07T03:23:10;1.00;99.90
17053;DHT22;8643;48.824;11.422;2023-04-07T03:25:39;1.00;99.90
17053;DHT22;8643;48.824;11.422;2023-04-07T03:30:39;1.00;99.90
17053;DHT22;8643;48.824;11.422;2023-04-07T03:33:09;2.00;99.90
17053;DHT22;8643;48.824;11.422;2023-04-07T03:35:39;0.90;99.90
17053;DHT22;8643;48.824;11.422;2023-04-07T03:40:37;0.90;99.90
17053;DHT22;8643;48.824;11.422;2023-04-07T03:43:05;0.50;99.90
17053;DHT22;8643;48.824;11.422;2023-04-07T03:45:39;1.00;99.90
17053;DHT22;8643;48.824;11.422;2023-04-07T03:48:10;1.00;99.90
17053;DHT22;8643;48.824;11.422;2023-04-07T03:50:49;1.00;99.90
17053;DHT22;8643;48.824;11.422;2023-04-07T03:53:18;1.00;99.90
17053;DHT22;8643;48.824;11.422;2023-04-07T03:55:48;1.00;99.90
17053;DHT22;8643;48.824;11.422;2023-04-07T03:58:28;1.00;99.90
17053;DHT22;8643;48.824;11.422;2023-04-07T04:00:57;1.00;99.90
17053;DHT22;8643;48.824;11.422;2023-04-07T04:03:27;1.00;99.90
17053;DHT22;8643;48.824;11.422;2023-04-07T04:08:37;1.00;99.90
17053;DHT22;8643;48.824;11.422;2023-04-07T04:11:06;1.00;99.90
17053;DHT22;8643;48.824;11.422;2023-04-07T04:13:42;1.00;99.90
17053;DHT22;8643;48.824;11.422;2023-04-07T04:16:11;4.50;99.90
17053;DHT22;8643;48.824;11.422;2023-04-07T04:18:43;0.90;99.90
17053;DHT22;8643;48.824;11.422;2023-04-07T04:21:13;0.80;99.90
17053;DHT22;8643;48.824;11.422;2023-04-07T04:26:14;0.80;99.90
17053;DHT22;8643;48.824;11.422;2023-04-07T04:28:44;0.80;99.90
17053;DHT22;8643;48.824;11.422;2023-04-07T04:31:14;0.80;99.90
17053;DHT22;8643;48.824;11.422;2023-04-07T04:33:44;0.70;99.90
17053;DHT22;8643;48.824;11.422;2023-04-07T04:36:13;0.80;99.90
17053;DHT22;8643;48.824;11.422;2023-04-07T04:38:42;0.80;99.90
17053;DHT22;8643;48.824;11.422;2023-04-07T04:41:16;0.80;99.90
17053;DHT22;8643;48.824;11.422;2023-04-07T04:43:44;0.70;99.90
17053;DHT22;8643;48.824;11.422;2023-04-07T04:46:19;0.70;99.90
17053;DHT22;8643;48.824;11.422;2023-04-07T04:48:50;0.70;99.90
17053;DHT22;8643;48.824;11.422;2023-04-07T04:51:22;0.70;99.90
17053;DHT22;8643;48.824;11.422;2023-04-07T04:53:55;0.70;99.90
17053;DHT22;8643;48.824;11.422;2023-04-07T04:56:26;0.90;99.90
17053;DHT22;8643;48.824;11.422;2023-04-07T04:58:54;0.90;99.90
17053;DHT22;8643;48.824;11.422;2023-04-07T05:04:09;1.10;99.90
17053;DHT22;8643;48.824;11.422;2023-04-07T05:06:44;1.10;99.90
17053;DHT22;8643;48.824;11.422;2023-04-07T05:09:16;1.10;99.90
17053;DHT22;8643;48.824;11.422;2023-04-07T05:11:47;1.20;99.90
17053;DHT22;8643;48.824;11.422;2023-04-07T05:14:16;1.30;99.90
17053;DHT22;8643;48.824;11.422;2023-04-07T05:16:51;1.30;99.90
17053;DHT22;8643;48.824;11.422;2023-04-07T05:19:27;1.40;99.90
17053;DHT22;8643;48.824;11.422;2023-04-07T05:22:03;1.50;99.90
17053;DHT22;8643;48.824;11.422;2023-04-07T05:24:39;1.60;99.90
17053;DHT22;8643;48.824;11.422;2023-04-07T05:29:38;1.70;99.90
17053;DHT22;8643;48.824;11.422;2023-04-07T05:32:12;1.80;99.90
17053;DHT22;8643;48.824;11.422;2023-04-07T05:34:42;1.90;99.90
17053;DHT22;8643;48.824;11.422;2023-04-07T05:37:11;2.00;99.90
17053;DHT22;8643;48.824;11.422;2023-04-07T05:39:39;2.10;99.90
17053;DHT22;8643;48.824;11.422;2023-04-07T05:42:12;2.20;99.90
17053;DHT22;8643;48.824;11.422;2023-04-07T05:44:42;2.30;99.90
17053;DHT22;8643;48.824;11.422;2023-04-07T05:47:13;2.40;99.90
17053;DHT22;8643;48.824;11.422;2023-04-07T05:49:43;2.50;99.90
17053;DHT22;8643;48.824;11.422;2023-04-07T05:52:13;2.60;99.90
17053;DHT22;8643;48.824;11.422;2023-04-07T05:54:48;2.60;99.90
17053;DHT22;8643;48.824;11.422;2023-04-07T05:57:18;3.70;99.90
17053;DHT22;8643;48.824;11.422;2023-04-07T05:59:48;2.70;99.90
17053;DHT22;8643;48.824;11.422;2023-04-07T06:02:17;2.70;99.90
17053;DHT22;8643;48.824;11.422;2023-04-07T06:04:48;2.90;99.90
17053;DHT22;8643;48.824;11.422;2023-04-07T06:07:18;3.00;99.90
17053;DHT22;8643;48.824;11.422;2023-04-07T06:09:47;3.20;99.90
17053;DHT22;8643;48.824;11.422;2023-04-07T06:12:16;3.30;99.90
17053;DHT22;8643;48.824;11.422;2023-04-07T06:14:52;3.40;99.90
17053;DHT22;8643;48.824;11.422;2023-04-07T06:17:22;3.60;99.90
17053;DHT22;8643;48.824;11.422;2023-04-07T06:19:53;3.80;99.90
17053;DHT22;8643;48.824;11.422;2023-04-07T06:22:21;4.40;99.90
17053;DHT22;8643;48.824;11.422;2023-04-07T06:24:50;4.20;99.90
17053;DHT22;8643;48.824;11.422;2023-04-07T06:27:20;4.30;99.90
17053;DHT22;8643;48.824;11.422;2023-04-07T06:29:49;4.60;99.90
17053;DHT22;8643;48.824;11.422;2023-04-07T06:32:18;4.50;99.90
17053;DHT22;8643;48.824;11.422;2023-04-07T06:34:47;4.70;99.90
17053;DHT22;8643;48.824;11.422;2023-04-07T06:37:17;3.40;99.90
17053;DHT22;8643;48.824;11.422;2023-04-07T06:39:45;5.10;99.90
17053;DHT22;8643;48.824;11.422;2023-04-07T06:42:14;5.20;99.90
17053;DHT22;8643;48.824;11.422;2023-04-07T06:44:50;5.50;99.90
17053;DHT22;8643;48.824;11.422;2023-04-07T06:47:19;5.60;99.90
17053;DHT22;8643;48.824;11.422;2023-04-07T06:52:18;5.80;99.90
17053;DHT22;8643;48.824;11.422;2023-04-07T06:57:16;6.00;99.90
17053;DHT22;8643;48.824;11.422;2023-04-07T06:59:45;6.20;99.90
17053;DHT22;8643;48.824;11.422;2023-04-07T07:02:13;6.20;99.90
17053;DHT22;8643;48.824;11.422;2023-04-07T07:07:11;6.40;99.90
17053;DHT22;8643;48.824;11.422;2023-04-07T07:09:41;6.60;99.90
17053;DHT22;8643;48.824;11.422;2023-04-07T07:12:10;6.80;99.90
17053;DHT22;8643;48.824;11.422;2023-04-07T07:14:38;7.60;99.90
17053;DHT22;8643;48.824;11.422;2023-04-07T07:17:07;7.10;99.90
17053;DHT22;8643;48.824;11.422;2023-04-07T07:19:35;8.50;99.90
17053;DHT22;8643;48.824;11.422;2023-04-07T07:22:04;7.80;99.90
17053;DHT22;8643;48.824;11.422;2023-04-07T07:24:33;7.80;99.90
17053;DHT22;8643;48.824;11.422;2023-04-07T07:27:04;8.10;99.90
17053;DHT22;8643;48.824;11.422;2023-04-07T07:29:33;8.40;99.90
17053;DHT22;8643;48.824;11.422;2023-04-07T07:34:31;8.80;99.90
17053;DHT22;8643;48.824;11.422;2023-04-07T07:37:00;8.70;99.90
17053;DHT22;8643;48.824;11.422;2023-04-07T07:39:29;8.80;99.90
17053;DHT22;8643;48.824;11.422;2023-04-07T07:41:57;8.80;99.90
17053;DHT22;8643;48.824;11.422;2023-04-07T07:44:28;8.70;99.90
17053;DHT22;8643;48.824;11.422;2023-04-07T07:49:27;8.80;99.90
17053;DHT22;8643;48.824;11.422;2023-04-07T07:51:58;5.90;99.90
17053;DHT22;8643;48.824;11.422;2023-04-07T07:54:27;8.70;99.90
17053;DHT22;8643;48.824;11.422;2023-04-07T07:56:56;8.90;99.90
17053;DHT22;8643;48.824;11.422;2023-04-07T07:59:25;8.70;99.90
17053;DHT22;8643;48.824;11.422;2023-04-07T08:01:54;8.80;99.90
17053;DHT22;8643;48.824;11.422;2023-04-07T08:04:23;8.90;99.90
17053;DHT22;8643;48.824;11.422;2023-04-07T08:06:52;8.00;99.90
17053;DHT22;8643;48.824;11.422;2023-04-07T08:09:21;9.10;99.90
17053;DHT22;8643;48.824;11.422;2023-04-07T08:11:50;9.40;99.90
17053;DHT22;8643;48.824;11.422;2023-04-07T08:14:19;9.50;99.90
17053;DHT22;8643;48.824;11.422;2023-04-07T08:16:47;9.80;99.90
17053;DHT22;8643;48.824;11.422;2023-04-07T08:19:17;9.80;99.90
17053;DHT22;8643;48.824;11.422;2023-04-07T08:21:46;9.80;99.90
17053;DHT22;8643;48.824;11.422;2023-04-07T08:24:14;9.80;99.90
17053;DHT22;8643;48.824;11.422;2023-04-07T08:26:43;9.90;99.90
17053;DHT22;8643;48.824;11.422;2023-04-07T08:29:12;10.20;99.90
17053;DHT22;8643;48.824;11.422;2023-04-07T08:31:41;10.50;99.90
17053;DHT22;8643;48.824;11.422;2023-04-07T08:34:10;10.70;99.90
17053;DHT22;8643;48.824;11.422;2023-04-07T08:36:41;11.10;99.90
17053;DHT22;8643;48.824;11.422;2023-04-07T08:41:39;10.80;99.90
17053;DHT22;8643;48.824;11.422;2023-04-07T08:44:10;11.10;99.90
17053;DHT22;8643;48.824;11.422;2023-04-07T08:46:42;11.30;99.90
17053;DHT22;8643;48.824;11.422;2023-04-07T08:49:11;11.40;99.90
17053;DHT22;8643;48.824;11.422;2023-04-07T08:51:44;11.00;99.90
17053;DHT22;8643;48.824;11.422;2023-04-07T08:54:15;11.00;99.90
17053;DHT22;8643;48.824;11.422;2023-04-07T08:59:17;11.40;99.90
17053;DHT22;8643;48.824;11.422;2023-04-07T09:06:50;12.10;99.90
17053;DHT22;8643;48.824;11.422;2023-04-07T09:09:18;12.40;99.90
17053;DHT22;8643;48.824;11.422;2023-04-07T09:11:47;12.30;98.40
17053;DHT22;8643;48.824;11.422;2023-04-07T09:14:17;12.10;97.70
17053;DHT22;8643;48.824;11.422;2023-04-07T09:19:15;12.00;97.80
17053;DHT22;8643;48.824;11.422;2023-04-07T09:21:48;11.90;97.30
17053;DHT22;8643;48.824;11.422;2023-04-07T09:24:23;11.80;97.40
17053;DHT22;8643;48.824;11.422;2023-04-07T09:27:08;11.20;97.70
17053;DHT22;8643;48.824;11.422;2023-04-07T09:29:41;11.80;97.00
17053;DHT22;8643;48.824;11.422;2023-04-07T09:32:11;12.00;96.50
17053;DHT22;8643;48.824;11.422;2023-04-07T09:34:40;11.90;98.50
17053;DHT22;8643;48.824;11.422;2023-04-07T09:37:21;11.70;96.60
17053;DHT22;8643;48.824;11.422;2023-04-07T09:39:51;11.80;95.90
17053;DHT22;8643;48.824;11.422;2023-04-07T09:42:20;11.70;96.30
17053;DHT22;8643;48.824;11.422;2023-04-07T09:44:49;11.30;97.70
17053;DHT22;8643;48.824;11.422;2023-04-07T09:47:25;11.40;98.40
17053;DHT22;8643;48.824;11.422;2023-04-07T09:49:56;11.40;97.50
17053;DHT22;8643;48.824;11.422;2023-04-07T09:52:47;11.50;98.10
17053;DHT22;8643;48.824;11.422;2023-04-07T09:55:19;11.50;98.10
17053;DHT22;8643;48.824;11.422;2023-04-07T09:57:49;11.60;97.00
17053;DHT22;8643;48.824;11.422;2023-04-07T10:00:18;11.70;97.90
17053;DHT22;8643;48.824;11.422;2023-04-07T10:02:47;11.60;97.60
17053;DHT22;8643;48.824;11.422;2023-04-07T10:05:17;11.50;96.80
17053;DHT22;8643;48.824;11.422;2023-04-07T10:07:49;11.40;97.50
17053;DHT22;8643;48.824;11.422;2023-04-07T10:10:18;11.80;98.30
17053;DHT22;8643;48.824;11.422;2023-04-07T10:12:49;12.10;97.50
17053;DHT22;8643;48.824;11.422;2023-04-07T10:15:21;12.40;97.00
17053;DHT22;8643;48.824;11.422;2023-04-07T10:17:50;12.70;97.90
17053;DHT22;8643;48.824;11.422;2023-04-07T10:20:23;12.70;94.90
17053;DHT22;8643;48.824;11.422;2023-04-07T10:22:54;12.90;94.60
17053;DHT22;8643;48.824;11.422;2023-04-07T10:25:31;13.30;94.50
17053;DHT22;8643;48.824;11.422;2023-04-07T10:28:05;13.50;93.00
17053;DHT22;8643;48.824;11.422;2023-04-07T10:30:38;13.90;93.30
17053;DHT22;8643;48.824;11.422;2023-04-07T10:33:07;14.30;91.70
17053;DHT22;8643;48.824;11.422;2023-04-07T10:36:04;14.50;91.40
17053;DHT22;8643;48.824;11.422;2023-04-07T10:38:35;14.40;91.90
17053;DHT22;8643;48.824;11.422;2023-04-07T10:41:31;14.30;90.20
17053;DHT22;8643;48.824;11.422;2023-04-07T10:44:03;14.50;89.60
17053;DHT22;8643;48.824;11.422;2023-04-07T10:47:02;14.80;86.00
17053;DHT22;8643;48.824;11.422;2023-04-07T10:49:32;14.20;87.30
17053;DHT22;8643;48.824;11.422;2023-04-07T10:52:20;14.50;90.00
17053;DHT22;8643;48.824;11.422;2023-04-07T10:58:19;15.20;84.80
17053;DHT22;8643;48.824;11.422;2023-04-07T11:01:18;14.90;81.60
17053;DHT22;8643;48.824;11.422;2023-04-07T11:04:08;14.50;83.50
17053;DHT22;8643;48.824;11.422;2023-04-07T11:06:45;14.70;88.80
17053;DHT22;8643;48.824;11.422;2023-04-07T11:09:18;15.40;84.20
17053;DHT22;8643;48.824;11.422;2023-04-07T11:11:48;15.60;80.70
17053;DHT22;8643;48.824;11.422;2023-04-07T11:14:24;15.90;79.90
17053;DHT22;8643;48.824;11.422;2023-04-07T11:16:54;15.50;80.50
17053;DHT22;8643;48.824;11.422;2023-04-07T11:19:23;15.20;80.60
17053;DHT22;8643;48.824;11.422;2023-04-07T11:22:12;14.90;80.50
17053;DHT22;8643;48.824;11.422;2023-04-07T11:24:55;14.90;82.20
17053;DHT22;8643;48.824;11.422;2023-04-07T11:27:25;14.60;81.20
17053;DHT22;8643;48.824;11.422;2023-04-07T11:29:55;14.10;83.00
17053;DHT22;8643;48.824;11.422;2023-04-07T11:32:23;14.00;86.50
17053;DHT22;8643;48.824;11.422;2023-04-07T11:34:56;14.10;85.20
17053;DHT22;8643;48.824;11.422;2023-04-07T11:37:25;13.70;85.00
17053;DHT22;8643;48.824;11.422;2023-04-07T11:39:56;13.50;84.40
17053;DHT22;8643;48.824;11.422;2023-04-07T11:42:34;13.40;85.40
17053;DHT22;8643;48.824;11.422;2023-04-07T11:45:04;13.30;82.60
17053;DHT22;8643;48.824;11.422;2023-04-07T11:47:34;13.40;83.10
17053;DHT22;8643;48.824;11.422;2023-04-07T11:50:04;12.90;86.50
17053;DHT22;8643;48.824;11.422;2023-04-07T11:52:40;12.50;87.80
17053;DHT22;8643;48.824;11.422;2023-04-07T11:55:16;12.40;88.90
17053;DHT22;8643;48.824;11.422;2023-04-07T11:57:49;12.20;89.90
17053;DHT22;8643;48.824;11.422;2023-04-07T12:00:19;12.10;90.20
17053;DHT22;8643;48.824;11.422;2023-04-07T12:02:48;12.00;90.00
17053;DHT22;8643;48.824;11.422;2023-04-07T12:05:17;11.90;90.30
17053;DHT22;8643;48.824;11.422;2023-04-07T12:07:52;11.80;90.40
17053;DHT22;8643;48.824;11.422;2023-04-07T12:10:24;11.70;90.10
17053;DHT22;8643;48.824;11.422;2023-04-07T12:12:54;11.60;90.60
17053;DHT22;8643;48.824;11.422;2023-04-07T12:17:54;11.50;90.90
17053;DHT22;8643;48.824;11.422;2023-04-07T12:20:22;11.60;90.90
17053;DHT22;8643;48.824;11.422;2023-04-07T12:22:51;11.60;91.10
17053;DHT22;8643;48.824;11.422;2023-04-07T12:25:20;11.60;90.70
17053;DHT22;8643;48.824;11.422;2023-04-07T12:27:48;11.60;90.60
17053;DHT22;8643;48.824;11.422;2023-04-07T12:30:18;11.70;91.00
17053;DHT22;8643;48.824;11.422;2023-04-07T12:32:47;11.50;90.60
17053;DHT22;8643;48.824;11.422;2023-04-07T12:35:15;11.10;90.80
17053;DHT22;8643;48.824;11.422;2023-04-07T12:37:44;11.80;90.90
17053;DHT22;8643;48.824;11.422;2023-04-07T12:40:16;12.10;92.70
17053;DHT22;8643;48.824;11.422;2023-04-07T12:42:44;12.40;90.10
17053;DHT22;8643;48.824;11.422;2023-04-07T12:45:13;12.60;90.10
17053;DHT22;8643;48.824;11.422;2023-04-07T12:47:44;12.60;89.30
17053;DHT22;8643;48.824;11.422;2023-04-07T12:50:13;10.20;85.70
17053;DHT22;8643;48.824;11.422;2023-04-07T12:52:41;12.70;86.50
17053;DHT22;8643;48.824;11.422;2023-04-07T12:55:10;12.80;87.40
17053;DHT22;8643;48.824;11.422;2023-04-07T12:57:40;12.90;87.10
17053;DHT22;8643;48.824;11.422;2023-04-07T13:00:09;13.00;87.60
17053;DHT22;8643;48.824;11.422;2023-04-07T13:02:38;13.10;86.40
17053;DHT22;8643;48.824;11.422;2023-04-07T13:05:09;13.30;85.90
17053;DHT22;8643;48.824;11.422;2023-04-07T13:07:38;13.20;84.80
17053;DHT22;8643;48.824;11.422;2023-04-07T13:10:08;13.30;85.30
17053;DHT22;8643;48.824;11.422;2023-04-07T13:12:37;13.60;85.30
17053;DHT22;8643;48.824;11.422;2023-04-07T13:15:07;13.70;83.90
17053;DHT22;8643;48.824;11.422;2023-04-07T13:17:36;13.70;83.70
17053;DHT22;8643;48.824;11.422;2023-04-07T13:20:05;13.50;87.10
17053;DHT22;8643;48.824;11.422;2023-04-07T13:22:38;13.60;84.30
17053;DHT22;8643;48.824;11.422;2023-04-07T13:27:50;13.60;84.40
17053;DHT22;8643;48.824;11.422;2023-04-07T13:30:19;13.60;84.10
17053;DHT22;8643;48.824;11.422;2023-04-07T13:32:48;13.70;83.50
17053;DHT22;8643;48.824;11.422;2023-04-07T13:35:18;13.90;83.80
17053;DHT22;8643;48.824;11.422;2023-04-07T13:37:48;14.00;82.80
17053;DHT22;8643;48.824;11.422;2023-04-07T13:42:46;13.60;85.10
17053;DHT22;8643;48.824;11.422;2023-04-07T13:45:15;13.40;85.10
17053;DHT22;8643;48.824;11.422;2023-04-07T13:47:43;13.40;85.60
17053;DHT22;8643;48.824;11.422;2023-04-07T13:50:12;13.50;86.60
17053;DHT22;8643;48.824;11.422;2023-04-07T13:52:41;13.30;85.10
17053;DHT22;8643;48.824;11.422;2023-04-07T13:55:11;13.20;85.60
17053;DHT22;8643;48.824;11.422;2023-04-07T14:00:11;13.10;84.60
17053;DHT22;8643;48.824;11.422;2023-04-07T14:02:41;12.90;85.40
17053;DHT22;8643;48.824;11.422;2023-04-07T14:05:11;12.90;85.30
17053;DHT22;8643;48.824;11.422;2023-04-07T14:07:40;12.90;86.10
17053;DHT22;8643;48.824;11.422;2023-04-07T14:10:08;12.70;86.20
17053;DHT22;8643;48.824;11.422;2023-04-07T14:12:38;12.60;86.30
17053;DHT22;8643;48.824;11.422;2023-04-07T14:15:08;12.40;86.60
17053;DHT22;8643;48.824;11.422;2023-04-07T14:17:37;12.50;86.20
17053;DHT22;8643;48.824;11.422;2023-04-07T14:20:06;12.40;86.50
17053;DHT22;8643;48.824;11.422;2023-04-07T14:22:35;12.20;87.20
17053;DHT22;8643;48.824;11.422;2023-04-07T14:25:05;12.30;86.10
17053;DHT22;8643;48.824;11.422;2023-04-07T14:27:35;12.30;85.80
17053;DHT22;8643;48.824;11.422;2023-04-07T14:30:05;12.30;85.80
17053;DHT22;8643;48.824;11.422;2023-04-07T14:32:34;12.30;86.50
17053;DHT22;8643;48.824;11.422;2023-04-07T14:35:03;12.30;84.90
17053;DHT22;8643;48.824;11.422;2023-04-07T14:37:32;12.30;87.30
17053;DHT22;8643;48.824;11.422;2023-04-07T14:40:01;12.20;87.00
17053;DHT22;8643;48.824;11.422;2023-04-07T14:42:31;12.30;84.70
17053;DHT22;8643;48.824;11.422;2023-04-07T14:45:01;12.40;86.00
17053;DHT22;8643;48.824;11.422;2023-04-07T14:47:30;12.20;88.40
17053;DHT22;8643;48.824;11.422;2023-04-07T14:49:58;12.30;87.30
17053;DHT22;8643;48.824;11.422;2023-04-07T14:52:27;12.20;87.60
17053;DHT22;8643;48.824;11.422;2023-04-07T14:54:56;11.40;86.20
17053;DHT22;8643;48.824;11.422;2023-04-07T14:57:26;12.00;87.40
17053;DHT22;8643;48.824;11.422;2023-04-07T14:59:54;12.00;89.30
17053;DHT22;8643;48.824;11.422;2023-04-07T15:02:24;12.10;89.80
17053;DHT22;8643;48.824;11.422;2023-04-07T15:04:55;12.00;90.20
17053;DHT22;8643;48.824;11.422;2023-04-07T15:07:24;11.90;89.80
17053;DHT22;8643;48.824;11.422;2023-04-07T15:09:52;11.70;91.20
17053;DHT22;8643;48.824;11.422;2023-04-07T15:12:21;11.80;90.90
17053;DHT22;8643;48.824;11.422;2023-04-07T15:14:50;11.80;91.30
17053;DHT22;8643;48.824;11.422;2023-04-07T15:17:19;11.80;91.60
17053;DHT22;8643;48.824;11.422;2023-04-07T15:20:08;11.80;90.90
17053;DHT22;8643;48.824;11.422;2023-04-07T15:22:39;11.80;91.00
17053;DHT22;8643;48.824;11.422;2023-04-07T15:27:36;11.80;91.40
17053;DHT22;8643;48.824;11.422;2023-04-07T15:30:06;11.80;91.40
17053;DHT22;8643;48.824;11.422;2023-04-07T15:32:35;11.80;91.60
17053;DHT22;8643;48.824;11.422;2023-04-07T15:35:04;11.70;91.90
17053;DHT22;8643;48.824;11.422;2023-04-07T15:37:36;11.60;92.40
17053;DHT22;8643;48.824;11.422;2023-04-07T15:40:05;11.50;92.70
17053;DHT22;8643;48.824;11.422;2023-04-07T15:42:35;11.50;92.10
17053;DHT22;8643;48.824;11.422;2023-04-07T15:45:08;11.40;92.50
17053;DHT22;8643;48.824;11.422;2023-04-07T15:47:37;11.40;92.80
17053;DHT22;8643;48.824;11.422;2023-04-07T15:50:09;11.30;93.20
17053;DHT22;8643;48.824;11.422;2023-04-07T15:52:37;11.20;93.80
17053;DHT22;8643;48.824;11.422;2023-04-07T15:55:06;11.10;93.50
17053;DHT22;8643;48.824;11.422;2023-04-07T16:00:05;11.00;94.20
17053;DHT22;8643;48.824;11.422;2023-04-07T16:02:35;10.90;94.60
17053;DHT22;8643;48.824;11.422;2023-04-07T16:05:04;10.90;94.80
17053;DHT22;8643;48.824;11.422;2023-04-07T16:07:35;10.80;94.90
17053;DHT22;8643;48.824;11.422;2023-04-07T16:10:04;10.80;95.00
17053;DHT22;8643;48.824;11.422;2023-04-07T16:12:34;10.80;95.40
17053;DHT22;8643;48.824;11.422;2023-04-07T16:15:04;10.80;95.70
17053;DHT22;8643;48.824;11.422;2023-04-07T16:17:35;10.80;95.70
17053;DHT22;8643;48.824;11.422;2023-04-07T16:20:09;10.80;96.00
17053;DHT22;8643;48.824;11.422;2023-04-07T16:22:40;11.00;95.90
17053;DHT22;8643;48.824;11.422;2023-04-07T16:25:09;11.10;95.50
17053;DHT22;8643;48.824;11.422;2023-04-07T16:27:38;11.30;94.70
17053;DHT22;8643;48.824;11.422;2023-04-07T16:30:07;11.40;94.70
17053;DHT22;8643;48.824;11.422;2023-04-07T16:32:37;11.30;94.90
17053;DHT22;8643;48.824;11.422;2023-04-07T16:35:08;11.20;94.90
17053;DHT22;8643;48.824;11.422;2023-04-07T16:37:38;11.00;95.50
17053;DHT22;8643;48.824;11.422;2023-04-07T16:40:09;10.90;95.80
17053;DHT22;8643;48.824;11.422;2023-04-07T16:42:38;10.80;96.10
17053;DHT22;8643;48.824;11.422;2023-04-07T16:45:07;9.10;96.30
17053;DHT22;8643;48.824;11.422;2023-04-07T16:47:36;10.60;96.80
17053;DHT22;8643;48.824;11.422;2023-04-07T16:50:11;10.50;97.00
17053;DHT22;8643;48.824;11.422;2023-04-07T16:52:40;10.50;97.10
17053;DHT22;8643;48.824;11.422;2023-04-07T16:55:08;10.10;97.60
17053;DHT22;8643;48.824;11.422;2023-04-07T16:57:38;10.30;98.20
17053;DHT22;8643;48.824;11.422;2023-04-07T17:00:07;10.30;98.70
17053;DHT22;8643;48.824;11.422;2023-04-07T17:02:36;10.20;99.40
17053;DHT22;8643;48.824;11.422;2023-04-07T17:05:05;10.00;99.60
17053;DHT22;8643;48.824;11.422;2023-04-07T17:07:36;10.00;99.70
17053;DHT22;8643;48.824;11.422;2023-04-07T17:10:05;9.90;99.90
17053;DHT22;8643;48.824;11.422;2023-04-07T17:12:35;9.80;99.90
17053;DHT22;8643;48.824;11.422;2023-04-07T17:15:03;9.70;99.90
17053;DHT22;8643;48.824;11.422;2023-04-07T17:17:33;9.60;99.90